createdAt,value
2018-11-26T00:01:01.657Z,5.10
2018-11-26T00:05:09.803Z,5.20
2018-11-26T00:09:17.942Z,5.10
2018-11-26T00:13:26.088Z,5.10
2018-11-26T00:17:34.224Z,5.20
2018-11-26T00:21:42.371Z,5.20
2018-11-26T00:25:50.816Z,5.10
2018-11-26T00:29:58.971Z,5.10
2018-11-26T00:34:07.096Z,5.20
2018-11-26T00:38:15.232Z,5.10
2018-11-26T00:42:23.368Z,5.10
2018-11-26T00:46:31.505Z,5.10
2018-11-26T00:50:39.640Z,5.10
2018-11-26T00:54:47.774Z,5.10
2018-11-26T00:58:55.904Z,5.20
2018-11-26T01:03:04.167Z,5.10
2018-11-26T01:07:12.292Z,5.20
2018-11-26T01:11:20.428Z,5.10
2018-11-26T01:15:28.596Z,5.20
2018-11-26T01:19:36.723Z,5.20
2018-11-26T01:23:44.887Z,5.30
2018-11-26T01:27:53.016Z,5.30
2018-11-26T01:32:01.197Z,5.30
2018-11-26T01:36:09.324Z,5.40
2018-11-26T01:40:20.023Z,5.30
2018-11-26T01:44:28.177Z,5.30
2018-11-26T01:48:36.300Z,5.30
2018-11-26T01:52:44.443Z,5.30
2018-11-26T01:56:52.567Z,5.30
2018-11-26T02:01:00.695Z,5.30
2018-11-26T02:05:08.920Z,5.30
2018-11-26T02:09:17.073Z,5.30
2018-11-26T02:13:25.220Z,5.30
2018-11-26T02:17:33.352Z,5.30
2018-11-26T02:21:41.492Z,5.30
2018-11-26T02:25:49.616Z,5.30
2018-11-26T02:29:57.761Z,5.30
2018-11-26T02:34:05.888Z,5.30
2018-11-26T02:38:14.022Z,5.40
2018-11-26T02:42:22.147Z,5.30
2018-11-26T02:46:30.277Z,5.30
2018-11-26T02:50:38.453Z,5.40
2018-11-26T02:54:46.576Z,5.40
2018-11-26T02:58:54.706Z,5.40
2018-11-26T03:03:02.829Z,5.40
2018-11-26T03:07:10.953Z,5.40
2018-11-26T03:11:19.121Z,5.40
2018-11-26T03:15:27.334Z,5.50
2018-11-26T03:19:35.458Z,5.50
2018-11-26T03:23:43.577Z,5.50
2018-11-26T03:27:51.716Z,5.50
2018-11-26T03:31:59.841Z,5.40
2018-11-26T03:36:07.969Z,5.40
2018-11-26T03:40:16.099Z,5.30
2018-11-26T03:44:24.242Z,5.30
2018-11-26T03:48:32.607Z,5.40
2018-11-26T03:52:41.935Z,5.40
2018-11-26T03:56:50.042Z,5.30
2018-11-26T04:00:58.177Z,5.30
2018-11-26T04:05:07.182Z,5.40
2018-11-26T04:09:15.313Z,5.40
2018-11-26T04:13:23.465Z,5.50
2018-11-26T04:17:31.613Z,5.50
2018-11-26T04:21:39.777Z,5.50
2018-11-26T04:25:47.953Z,5.40
2018-11-26T04:29:56.103Z,5.40
2018-11-26T04:34:04.253Z,5.40
2018-11-26T04:38:12.398Z,5.40
2018-11-26T04:42:20.541Z,5.40
2018-11-26T04:46:28.719Z,5.40
2018-11-26T04:50:36.874Z,5.40
2018-11-26T04:54:45.018Z,5.40
2018-11-26T04:58:53.166Z,5.50
2018-11-26T05:03:01.305Z,5.50
2018-11-26T05:07:09.443Z,5.50
2018-11-26T05:11:17.573Z,5.50
2018-11-26T05:15:25.732Z,5.50
2018-11-26T05:19:33.881Z,5.40
2018-11-26T05:23:42.020Z,5.50
2018-11-26T05:27:50.153Z,5.50
2018-11-26T05:31:58.290Z,5.60
2018-11-26T05:36:06.425Z,5.50
2018-11-26T05:40:14.834Z,5.50
2018-11-26T05:44:22.969Z,5.50
2018-11-26T05:48:31.122Z,5.50
2018-11-26T05:52:39.789Z,5.50
2018-11-26T05:56:47.929Z,5.50
2018-11-26T06:00:56.061Z,5.50
2018-11-26T06:05:04.494Z,5.50
2018-11-26T06:09:12.629Z,5.50
2018-11-26T06:13:21.347Z,5.50
2018-11-26T06:17:29.482Z,5.60
2018-11-26T06:21:37.615Z,5.50
2018-11-26T06:25:45.746Z,5.50
2018-11-26T06:29:53.873Z,5.50
2018-11-26T06:34:02.013Z,5.50
2018-11-26T06:38:10.148Z,5.50
2018-11-26T06:42:18.277Z,5.40
2018-11-26T06:46:26.448Z,5.40
2018-11-26T06:50:34.541Z,5.40
2018-11-26T06:54:42.671Z,5.40
2018-11-26T06:58:50.805Z,5.40
2018-11-26T07:02:58.940Z,5.40
2018-11-26T07:07:07.089Z,5.50
2018-11-26T07:11:15.234Z,5.50
2018-11-26T07:15:23.374Z,5.50
2018-11-26T07:19:31.501Z,5.40
2018-11-26T07:23:39.642Z,5.40
2018-11-26T07:27:53.333Z,5.40
2018-11-26T07:32:01.506Z,5.40
2018-11-26T07:36:11.419Z,5.40
2018-11-26T07:40:18.909Z,5.50
2018-11-26T07:44:27.053Z,5.40
2018-11-26T07:48:35.189Z,5.50
2018-11-26T07:52:43.331Z,5.50
2018-11-26T07:56:51.481Z,5.60
2018-11-26T08:00:59.637Z,5.60
2018-11-26T08:05:09.441Z,5.60
2018-11-26T08:09:17.584Z,5.60
2018-11-26T08:13:25.808Z,5.70
2018-11-26T08:17:33.954Z,5.70
2018-11-26T08:21:42.106Z,5.70
2018-11-26T08:25:50.242Z,5.70
2018-11-26T08:29:58.504Z,5.80
2018-11-26T08:34:06.659Z,5.80
2018-11-26T08:38:20.248Z,5.90
2018-11-26T08:42:32.640Z,6.00
2018-11-26T08:46:46.084Z,6.10
2018-11-26T08:50:55.198Z,6.20
2018-11-26T08:55:03.342Z,6.30
2018-11-26T08:59:11.572Z,6.40
2018-11-26T09:03:20.660Z,6.50
2018-11-26T09:07:28.864Z,6.60
2018-11-26T09:11:37.025Z,6.70
2018-11-26T09:15:45.162Z,6.70
2018-11-26T09:19:53.375Z,6.70
2018-11-26T09:24:01.514Z,6.80
2018-11-26T09:28:09.660Z,6.90
2018-11-26T09:32:17.797Z,6.90
2018-11-26T09:36:26.053Z,6.80
2018-11-26T09:40:34.197Z,6.70
2018-11-26T09:44:42.331Z,6.60
2018-11-26T09:48:50.468Z,6.60
2018-11-26T09:52:58.630Z,6.60
2018-11-26T09:57:06.788Z,6.50
2018-11-26T10:01:14.921Z,6.60
2018-11-26T10:05:24.359Z,6.60
2018-11-26T10:09:32.495Z,6.60
2018-11-26T10:13:40.629Z,6.60
2018-11-26T10:17:48.788Z,6.60
2018-11-26T10:21:56.957Z,6.60
2018-11-26T10:26:05.544Z,6.70
2018-11-26T10:30:14.751Z,6.80
2018-11-26T10:34:22.921Z,6.90
2018-11-26T10:38:31.066Z,7.00
2018-11-26T10:42:39.216Z,7.00
2018-11-26T10:46:47.366Z,6.90
2018-11-26T10:50:55.513Z,6.80
2018-11-26T10:55:03.678Z,6.70
2018-11-26T10:59:11.850Z,6.70
2018-11-26T11:03:19.985Z,6.60
2018-11-26T11:07:28.128Z,6.60
2018-11-26T11:11:36.283Z,6.60
2018-11-26T11:15:44.413Z,6.50
2018-11-26T11:19:52.588Z,6.50
2018-11-26T11:24:00.712Z,6.50
2018-11-26T11:28:08.871Z,6.50
2018-11-26T11:32:17.038Z,6.40
2018-11-26T11:36:25.186Z,6.40
2018-11-26T11:40:33.327Z,6.40
2018-11-26T11:44:41.546Z,6.40
2018-11-26T11:48:49.719Z,6.30
2018-11-26T11:53:02.119Z,6.30
2018-11-26T11:57:10.270Z,6.30
2018-11-26T12:01:18.416Z,6.30
2018-11-26T12:05:26.633Z,6.30
2018-11-26T12:09:34.722Z,6.20
2018-11-26T12:13:42.872Z,6.20
2018-11-26T12:17:51.022Z,6.20
2018-11-26T12:21:59.177Z,6.20
2018-11-26T12:26:07.334Z,6.20
2018-11-26T12:30:18.699Z,6.30
2018-11-26T12:34:27.002Z,6.30
2018-11-26T12:38:35.856Z,6.40
2018-11-26T12:42:43.303Z,6.40
2018-11-26T12:46:51.444Z,6.50
2018-11-26T12:50:59.675Z,6.50
2018-11-26T12:55:17.221Z,6.50
2018-11-26T12:59:25.359Z,6.60
2018-11-26T13:03:33.515Z,6.60
2018-11-26T13:07:41.688Z,6.60
2018-11-26T13:11:49.834Z,6.70
2018-11-26T13:15:58.058Z,6.70
2018-11-26T13:20:09.647Z,6.70
2018-11-26T13:24:17.795Z,6.80
2018-11-26T13:28:25.937Z,6.70
2018-11-26T13:32:34.223Z,6.70
2018-11-26T13:36:42.224Z,6.80
2018-11-26T13:40:50.366Z,6.80
2018-11-26T13:44:58.495Z,6.90
2018-11-26T13:49:06.632Z,6.80
2018-11-26T13:53:14.884Z,6.80
2018-11-26T13:57:23.023Z,6.80
2018-11-26T14:01:31.179Z,6.80
2018-11-26T14:05:39.322Z,6.80
2018-11-26T14:09:47.456Z,6.80
2018-11-26T14:13:55.589Z,6.80
2018-11-26T14:18:03.746Z,6.80
2018-11-26T14:22:11.882Z,6.70
2018-11-26T14:26:20.030Z,6.60
2018-11-26T14:30:29.078Z,6.50
2018-11-26T14:34:38.343Z,6.60
2018-11-26T14:38:46.489Z,6.60
2018-11-26T14:42:54.655Z,6.60
2018-11-26T14:47:02.822Z,6.60
2018-11-26T14:51:10.998Z,6.60
2018-11-26T14:55:24.602Z,6.60
2018-11-26T14:59:32.754Z,6.50
2018-11-26T15:03:40.883Z,6.50
2018-11-26T15:07:49.018Z,6.40
2018-11-26T15:11:57.166Z,6.40
2018-11-26T15:16:05.797Z,6.40
2018-11-26T15:20:21.209Z,6.30
2018-11-26T15:24:29.424Z,6.20
2018-11-26T15:28:37.510Z,6.20
2018-11-26T15:32:45.699Z,6.20
2018-11-26T15:36:53.850Z,6.20
2018-11-26T15:41:01.997Z,6.10
2018-11-26T15:45:22.086Z,6.00
2018-11-26T15:49:30.226Z,6.00
2018-11-26T15:53:38.395Z,6.00
2018-11-26T15:57:46.532Z,6.00
2018-11-26T16:01:54.675Z,6.10
2018-11-26T16:06:02.822Z,6.10
2018-11-26T16:10:12.082Z,6.10
2018-11-26T16:14:25.687Z,6.00
2018-11-26T16:18:33.823Z,6.00
2018-11-26T16:22:41.988Z,6.00
2018-11-26T16:26:50.210Z,6.00
2018-11-26T16:30:58.379Z,6.00
2018-11-26T16:35:11.022Z,6.00
2018-11-26T16:39:19.168Z,6.00
2018-11-26T16:43:27.295Z,6.00
2018-11-26T16:47:35.450Z,5.90
2018-11-26T16:51:43.683Z,5.90
2018-11-26T16:55:51.922Z,5.90
2018-11-26T17:00:00.051Z,6.00
2018-11-26T17:04:08.192Z,6.00
2018-11-26T17:08:16.318Z,5.90
2018-11-26T17:12:24.465Z,5.90
2018-11-26T17:16:32.606Z,5.90
2018-11-26T17:20:40.730Z,5.90
2018-11-26T17:24:48.852Z,5.90
2018-11-26T17:28:57.033Z,5.80
2018-11-26T17:33:06.447Z,5.80
2018-11-26T17:37:14.585Z,5.80
2018-11-26T17:41:22.703Z,5.80
2018-11-26T17:45:30.843Z,5.80
2018-11-26T17:49:38.959Z,5.90
2018-11-26T17:53:47.074Z,5.90
2018-11-26T17:57:55.209Z,5.80
2018-11-26T18:02:03.663Z,5.90
2018-11-26T18:06:11.789Z,5.90
2018-11-26T18:10:19.932Z,5.90
2018-11-26T18:14:28.070Z,5.90
2018-11-26T18:18:36.191Z,5.90
2018-11-26T18:22:45.582Z,5.90
2018-11-26T18:26:53.747Z,5.90
2018-11-26T18:31:01.895Z,5.90
2018-11-26T18:35:10.023Z,5.90
2018-11-26T18:39:20.405Z,5.90
2018-11-26T18:47:48.092Z,5.90
2018-11-26T18:51:56.217Z,5.90
2018-11-26T18:56:11.980Z,5.90
2018-11-26T19:00:30.940Z,5.80
2018-11-26T19:04:39.386Z,5.80
2018-11-26T19:08:47.530Z,5.90
2018-11-26T19:13:04.956Z,5.80
2018-11-26T19:17:13.091Z,5.80
2018-11-26T19:21:21.226Z,5.80
2018-11-26T19:25:29.371Z,5.80
2018-11-26T19:29:37.491Z,5.80
2018-11-26T19:33:45.631Z,5.80
2018-11-26T19:37:53.836Z,5.80
2018-11-26T19:42:02.009Z,5.80
2018-11-26T19:46:10.161Z,5.70
2018-11-26T19:50:19.204Z,5.70
2018-11-26T19:54:27.358Z,5.70
2018-11-26T19:58:35.506Z,5.70
2018-11-26T20:02:44.682Z,5.70
2018-11-26T20:06:52.831Z,5.80
2018-11-26T20:11:00.981Z,5.80
2018-11-26T20:15:12.933Z,5.80
2018-11-26T20:19:21.090Z,5.80
2018-11-26T20:23:29.287Z,5.80
2018-11-26T20:27:37.430Z,5.80
2018-11-26T20:31:45.631Z,5.80
2018-11-26T20:35:53.758Z,5.80
2018-11-26T20:40:01.875Z,5.70
2018-11-26T20:44:10.091Z,5.80
2018-11-26T20:48:18.213Z,5.70
2018-11-26T20:52:26.341Z,5.70
2018-11-26T20:56:34.475Z,5.70
2018-11-26T21:00:42.811Z,5.70
2018-11-26T21:04:50.951Z,5.70
2018-11-26T21:08:59.075Z,5.60
2018-11-26T21:13:07.772Z,5.60
2018-11-26T21:17:15.896Z,5.60
2018-11-26T21:21:24.035Z,5.50
2018-11-26T21:25:32.258Z,5.50
2018-11-26T21:29:40.399Z,5.50
2018-11-26T21:33:48.530Z,5.50
2018-11-26T21:37:56.654Z,5.40
2018-11-26T21:42:05.091Z,5.40
2018-11-26T21:46:13.218Z,5.50
2018-11-26T21:50:21.365Z,5.50
2018-11-26T21:54:29.490Z,5.50
2018-11-26T21:58:37.625Z,5.40
2018-11-26T22:02:45.820Z,5.40
2018-11-26T22:06:53.934Z,5.40
2018-11-26T22:11:02.066Z,5.50
2018-11-26T22:15:11.731Z,5.50
2018-11-26T22:19:19.870Z,5.50
2018-11-26T22:23:28.003Z,5.50
2018-11-26T22:27:36.142Z,5.50
2018-11-26T22:31:44.284Z,5.50
2018-11-26T22:35:52.498Z,5.50
2018-11-26T22:40:00.634Z,5.50
2018-11-26T22:44:08.791Z,5.50
2018-11-26T22:48:16.941Z,5.50
2018-11-26T22:52:25.087Z,5.50
2018-11-26T22:56:33.224Z,5.50
2018-11-26T23:00:44.946Z,5.40
2018-11-26T23:04:53.080Z,5.40
2018-11-26T23:09:01.231Z,5.40
2018-11-26T23:13:09.560Z,5.40
2018-11-26T23:17:17.689Z,5.40
2018-11-26T23:21:25.830Z,5.40
2018-11-26T23:25:33.994Z,5.40
2018-11-26T23:29:42.143Z,5.40
2018-11-26T23:33:50.270Z,5.40
2018-11-26T23:37:58.401Z,5.40
2018-11-26T23:42:06.513Z,5.40
2018-11-26T23:46:14.634Z,5.40
2018-11-26T23:50:22.750Z,5.40
2018-11-26T23:54:30.867Z,5.40
2018-11-26T23:58:39.679Z,5.40
